sensor_id;sensor_type;location;lat;lon;timestamp;P1;durP1;ratioP1;P2;durP2;ratioP2
17842;SDS011;69286;48.222;16.332;2024-02-26T00:01:50;8.33;;;4.33;;
17842;SDS011;69286;48.222;16.332;2024-02-26T00:04:17;6.20;;;4.17;;
17842;SDS011;69286;48.222;16.332;2024-02-26T00:06:44;7.93;;;5.50;;
17842;SDS011;69286;48.222;16.332;2024-02-26T00:09:11;7.90;;;4.13;;
17842;SDS011;69286;48.222;16.332;2024-02-26T00:11:38;10.93;;;4.70;;
17842;SDS011;69286;48.222;16.332;2024-02-26T00:14:05;9.03;;;4.60;;
17842;SDS011;69286;48.222;16.332;2024-02-26T00:16:32;6.50;;;3.87;;
17842;SDS011;69286;48.222;16.332;2024-02-26T00:19:00;8.13;;;4.10;;
17842;SDS011;69286;48.222;16.332;2024-02-26T00:21:27;7.87;;;4.17;;
17842;SDS011;69286;48.222;16.332;2024-02-26T00:23:54;10.87;;;5.20;;
17842;SDS011;69286;48.222;16.332;2024-02-26T00:26:21;9.00;;;4.17;;
17842;SDS011;69286;48.222;16.332;2024-02-26T00:28:48;8.47;;;4.70;;
17842;SDS011;69286;48.222;16.332;2024-02-26T00:31:15;13.17;;;4.70;;
17842;SDS011;69286;48.222;16.332;2024-02-26T00:33:42;13.10;;;4.27;;
17842;SDS011;69286;48.222;16.332;2024-02-26T00:36:11;8.33;;;4.80;;
17842;SDS011;69286;48.222;16.332;2024-02-26T00:38:38;7.53;;;4.57;;
17842;SDS011;69286;48.222;16.332;2024-02-26T00:41:05;7.47;;;4.70;;
17842;SDS011;69286;48.222;16.332;2024-02-26T00:43:32;8.40;;;5.07;;
17842;SDS011;69286;48.222;16.332;2024-02-26T00:45:59;8.03;;;4.50;;
17842;SDS011;69286;48.222;16.332;2024-02-26T00:48:27;6.83;;;4.50;;
17842;SDS011;69286;48.222;16.332;2024-02-26T00:50:54;9.97;;;4.57;;
17842;SDS011;69286;48.222;16.332;2024-02-26T00:53:22;10.33;;;4.73;;
17842;SDS011;69286;48.222;16.332;2024-02-26T00:55:50;9.60;;;5.07;;
17842;SDS011;69286;48.222;16.332;2024-02-26T00:58:17;9.53;;;5.10;;
17842;SDS011;69286;48.222;16.332;2024-02-26T01:00:44;7.87;;;4.70;;
17842;SDS011;69286;48.222;16.332;2024-02-26T01:03:11;8.80;;;4.30;;
17842;SDS011;69286;48.222;16.332;2024-02-26T01:05:38;10.33;;;4.87;;
17842;SDS011;69286;48.222;16.332;2024-02-26T01:08:05;10.07;;;4.30;;
17842;SDS011;69286;48.222;16.332;2024-02-26T01:10:33;11.33;;;4.63;;
17842;SDS011;69286;48.222;16.332;2024-02-26T01:13:00;10.73;;;4.70;;
17842;SDS011;69286;48.222;16.332;2024-02-26T01:15:27;9.53;;;4.80;;
17842;SDS011;69286;48.222;16.332;2024-02-26T01:17:54;8.47;;;4.50;;
17842;SDS011;69286;48.222;16.332;2024-02-26T01:20:21;9.33;;;4.03;;
17842;SDS011;69286;48.222;16.332;2024-02-26T01:22:48;9.73;;;4.53;;
17842;SDS011;69286;48.222;16.332;2024-02-26T01:25:15;7.70;;;4.40;;
17842;SDS011;69286;48.222;16.332;2024-02-26T01:27:44;11.57;;;5.00;;
17842;SDS011;69286;48.222;16.332;2024-02-26T01:30:11;11.53;;;4.90;;
17842;SDS011;69286;48.222;16.332;2024-02-26T01:32:41;7.57;;;4.10;;
17842;SDS011;69286;48.222;16.332;2024-02-26T01:35:08;11.20;;;4.93;;
17842;SDS011;69286;48.222;16.332;2024-02-26T01:37:36;12.30;;;5.40;;
17842;SDS011;69286;48.222;16.332;2024-02-26T01:40:03;7.63;;;4.53;;
17842;SDS011;69286;48.222;16.332;2024-02-26T01:42:32;6.60;;;4.43;;
17842;SDS011;69286;48.222;16.332;2024-02-26T01:45:00;6.90;;;4.60;;
17842;SDS011;69286;48.222;16.332;2024-02-26T01:47:28;7.73;;;4.90;;
17842;SDS011;69286;48.222;16.332;2024-02-26T01:49:55;6.17;;;4.20;;
17842;SDS011;69286;48.222;16.332;2024-02-26T01:52:23;9.30;;;4.70;;
17842;SDS011;69286;48.222;16.332;2024-02-26T01:54:50;10.80;;;4.73;;
17842;SDS011;69286;48.222;16.332;2024-02-26T01:57:17;8.77;;;4.87;;
17842;SDS011;69286;48.222;16.332;2024-02-26T01:59:44;7.17;;;4.90;;
17842;SDS011;69286;48.222;16.332;2024-02-26T02:02:12;8.43;;;5.07;;
17842;SDS011;69286;48.222;16.332;2024-02-26T02:04:42;10.77;;;5.27;;
17842;SDS011;69286;48.222;16.332;2024-02-26T02:07:09;9.17;;;4.87;;
17842;SDS011;69286;48.222;16.332;2024-02-26T02:09:36;12.30;;;5.10;;
17842;SDS011;69286;48.222;16.332;2024-02-26T02:12:03;10.07;;;5.57;;
17842;SDS011;69286;48.222;16.332;2024-02-26T02:14:32;9.83;;;5.43;;
17842;SDS011;69286;48.222;16.332;2024-02-26T02:16:59;12.43;;;5.27;;
17842;SDS011;69286;48.222;16.332;2024-02-26T02:19:27;7.07;;;4.50;;
17842;SDS011;69286;48.222;16.332;2024-02-26T02:21:55;8.43;;;4.93;;
17842;SDS011;69286;48.222;16.332;2024-02-26T02:24:22;11.53;;;5.43;;
17842;SDS011;69286;48.222;16.332;2024-02-26T02:26:49;6.37;;;4.73;;
17842;SDS011;69286;48.222;16.332;2024-02-26T02:29:17;12.63;;;5.50;;
17842;SDS011;69286;48.222;16.332;2024-02-26T02:31:44;8.33;;;4.93;;
17842;SDS011;69286;48.222;16.332;2024-02-26T02:34:11;12.70;;;4.77;;
17842;SDS011;69286;48.222;16.332;2024-02-26T02:36:48;8.73;;;5.20;;
17842;SDS011;69286;48.222;16.332;2024-02-26T02:39:16;9.70;;;4.77;;
17842;SDS011;69286;48.222;16.332;2024-02-26T02:41:43;7.17;;;5.00;;
17842;SDS011;69286;48.222;16.332;2024-02-26T02:44:11;8.17;;;5.33;;
17842;SDS011;69286;48.222;16.332;2024-02-26T02:46:38;8.67;;;5.60;;
17842;SDS011;69286;48.222;16.332;2024-02-26T02:49:07;12.27;;;6.17;;
17842;SDS011;69286;48.222;16.332;2024-02-26T02:51:35;7.57;;;5.00;;
17842;SDS011;69286;48.222;16.332;2024-02-26T02:54:02;10.53;;;5.17;;
17842;SDS011;69286;48.222;16.332;2024-02-26T02:56:31;9.87;;;4.87;;
17842;SDS011;69286;48.222;16.332;2024-02-26T02:58:57;10.73;;;5.13;;
17842;SDS011;69286;48.222;16.332;2024-02-26T03:01:24;6.80;;;4.73;;
17842;SDS011;69286;48.222;16.332;2024-02-26T03:03:51;7.83;;;4.30;;
17842;SDS011;69286;48.222;16.332;2024-02-26T03:06:18;7.77;;;4.30;;
17842;SDS011;69286;48.222;16.332;2024-02-26T03:08:46;7.10;;;4.43;;
17842;SDS011;69286;48.222;16.332;2024-02-26T03:11:13;6.07;;;3.93;;
17842;SDS011;69286;48.222;16.332;2024-02-26T03:13:42;5.90;;;3.97;;
17842;SDS011;69286;48.222;16.332;2024-02-26T03:16:09;13.77;;;4.30;;
17842;SDS011;69286;48.222;16.332;2024-02-26T03:18:38;10.80;;;4.13;;
17842;SDS011;69286;48.222;16.332;2024-02-26T03:21:05;12.13;;;4.10;;
17842;SDS011;69286;48.222;16.332;2024-02-26T03:23:32;7.47;;;4.17;;
17842;SDS011;69286;48.222;16.332;2024-02-26T03:26:01;10.93;;;4.57;;
17842;SDS011;69286;48.222;16.332;2024-02-26T03:28:29;11.63;;;4.30;;
17842;SDS011;69286;48.222;16.332;2024-02-26T03:30:57;6.87;;;4.10;;
17842;SDS011;69286;48.222;16.332;2024-02-26T03:33:24;8.70;;;4.17;;
17842;SDS011;69286;48.222;16.332;2024-02-26T03:35:51;5.27;;;3.87;;
17842;SDS011;69286;48.222;16.332;2024-02-26T03:38:18;6.83;;;4.20;;
17842;SDS011;69286;48.222;16.332;2024-02-26T03:40:45;12.87;;;4.30;;
17842;SDS011;69286;48.222;16.332;2024-02-26T03:43:12;7.13;;;4.10;;
17842;SDS011;69286;48.222;16.332;2024-02-26T03:45:39;8.97;;;3.90;;
17842;SDS011;69286;48.222;16.332;2024-02-26T03:48:07;7.57;;;4.67;;
17842;SDS011;69286;48.222;16.332;2024-02-26T03:50:34;8.07;;;4.63;;
17842;SDS011;69286;48.222;16.332;2024-02-26T03:53:01;7.20;;;4.17;;
17842;SDS011;69286;48.222;16.332;2024-02-26T03:55:28;11.10;;;4.80;;
17842;SDS011;69286;48.222;16.332;2024-02-26T03:57:55;5.77;;;3.80;;
17842;SDS011;69286;48.222;16.332;2024-02-26T04:00:22;8.40;;;4.33;;
17842;SDS011;69286;48.222;16.332;2024-02-26T04:02:50;7.00;;;4.00;;
17842;SDS011;69286;48.222;16.332;2024-02-26T04:05:18;6.30;;;4.13;;
17842;SDS011;69286;48.222;16.332;2024-02-26T04:07:45;7.27;;;4.70;;
17842;SDS011;69286;48.222;16.332;2024-02-26T04:10:12;6.83;;;4.37;;
17842;SDS011;69286;48.222;16.332;2024-02-26T04:12:40;6.60;;;4.37;;
17842;SDS011;69286;48.222;16.332;2024-02-26T04:15:06;6.90;;;4.30;;
17842;SDS011;69286;48.222;16.332;2024-02-26T04:17:34;7.90;;;4.30;;
17842;SDS011;69286;48.222;16.332;2024-02-26T04:20:02;8.83;;;4.53;;
17842;SDS011;69286;48.222;16.332;2024-02-26T04:22:32;14.60;;;4.63;;
17842;SDS011;69286;48.222;16.332;2024-02-26T04:24:59;11.20;;;4.50;;
17842;SDS011;69286;48.222;16.332;2024-02-26T04:27:26;8.33;;;4.47;;
17842;SDS011;69286;48.222;16.332;2024-02-26T04:29:53;7.20;;;4.60;;
17842;SDS011;69286;48.222;16.332;2024-02-26T04:32:19;6.27;;;4.07;;
17842;SDS011;69286;48.222;16.332;2024-02-26T04:34:46;7.67;;;4.87;;
17842;SDS011;69286;48.222;16.332;2024-02-26T04:37:13;10.77;;;4.80;;
17842;SDS011;69286;48.222;16.332;2024-02-26T04:39:42;6.33;;;4.20;;
17842;SDS011;69286;48.222;16.332;2024-02-26T04:42:08;8.67;;;4.47;;
17842;SDS011;69286;48.222;16.332;2024-02-26T04:44:35;7.40;;;4.30;;
17842;SDS011;69286;48.222;16.332;2024-02-26T04:47:02;9.37;;;5.03;;
17842;SDS011;69286;48.222;16.332;2024-02-26T04:49:29;9.60;;;4.50;;
17842;SDS011;69286;48.222;16.332;2024-02-26T04:51:56;8.07;;;4.37;;
17842;SDS011;69286;48.222;16.332;2024-02-26T04:54:23;7.83;;;4.80;;
17842;SDS011;69286;48.222;16.332;2024-02-26T04:56:51;10.80;;;5.00;;
17842;SDS011;69286;48.222;16.332;2024-02-26T04:59:18;10.57;;;5.33;;
17842;SDS011;69286;48.222;16.332;2024-02-26T05:01:45;8.67;;;5.00;;
17842;SDS011;69286;48.222;16.332;2024-02-26T05:04:12;9.73;;;5.20;;
17842;SDS011;69286;48.222;16.332;2024-02-26T05:06:39;10.20;;;5.50;;
17842;SDS011;69286;48.222;16.332;2024-02-26T05:09:06;15.43;;;6.10;;
17842;SDS011;69286;48.222;16.332;2024-02-26T05:11:33;7.17;;;5.30;;
17842;SDS011;69286;48.222;16.332;2024-02-26T05:14:01;9.37;;;5.20;;
17842;SDS011;69286;48.222;16.332;2024-02-26T05:16:29;9.83;;;5.83;;
17842;SDS011;69286;48.222;16.332;2024-02-26T05:18:56;10.87;;;5.77;;
17842;SDS011;69286;48.222;16.332;2024-02-26T05:21:23;11.70;;;6.40;;
17842;SDS011;69286;48.222;16.332;2024-02-26T05:23:50;11.30;;;5.77;;
17842;SDS011;69286;48.222;16.332;2024-02-26T05:26:20;12.53;;;5.70;;
17842;SDS011;69286;48.222;16.332;2024-02-26T05:28:47;12.97;;;6.80;;
17842;SDS011;69286;48.222;16.332;2024-02-26T05:31:16;14.77;;;6.33;;
17842;SDS011;69286;48.222;16.332;2024-02-26T05:33:44;15.40;;;6.80;;
17842;SDS011;69286;48.222;16.332;2024-02-26T05:36:17;9.63;;;6.80;;
17842;SDS011;69286;48.222;16.332;2024-02-26T05:38:44;13.23;;;7.50;;
17842;SDS011;69286;48.222;16.332;2024-02-26T05:41:12;12.93;;;6.80;;
17842;SDS011;69286;48.222;16.332;2024-02-26T05:43:39;13.50;;;6.23;;
17842;SDS011;69286;48.222;16.332;2024-02-26T05:46:06;12.27;;;6.33;;
17842;SDS011;69286;48.222;16.332;2024-02-26T05:48:34;13.33;;;7.30;;
17842;SDS011;69286;48.222;16.332;2024-02-26T05:51:01;10.50;;;6.67;;
17842;SDS011;69286;48.222;16.332;2024-02-26T05:53:28;14.13;;;7.30;;
17842;SDS011;69286;48.222;16.332;2024-02-26T05:55:55;13.17;;;6.30;;
17842;SDS011;69286;48.222;16.332;2024-02-26T05:58:22;9.53;;;6.73;;
17842;SDS011;69286;48.222;16.332;2024-02-26T06:00:49;11.73;;;6.70;;
17842;SDS011;69286;48.222;16.332;2024-02-26T06:03:16;10.17;;;6.80;;
17842;SDS011;69286;48.222;16.332;2024-02-26T06:05:45;13.77;;;7.60;;
17842;SDS011;69286;48.222;16.332;2024-02-26T06:08:12;12.03;;;7.00;;
17842;SDS011;69286;48.222;16.332;2024-02-26T06:10:39;11.17;;;6.93;;
17842;SDS011;69286;48.222;16.332;2024-02-26T06:13:06;9.87;;;6.03;;
17842;SDS011;69286;48.222;16.332;2024-02-26T06:15:33;10.10;;;6.33;;
17842;SDS011;69286;48.222;16.332;2024-02-26T06:18:00;10.13;;;6.07;;
17842;SDS011;69286;48.222;16.332;2024-02-26T06:20:28;12.07;;;5.93;;
17842;SDS011;69286;48.222;16.332;2024-02-26T06:22:56;10.40;;;6.70;;
17842;SDS011;69286;48.222;16.332;2024-02-26T06:25:23;9.80;;;5.70;;
17842;SDS011;69286;48.222;16.332;2024-02-26T06:27:50;13.87;;;6.90;;
17842;SDS011;69286;48.222;16.332;2024-02-26T06:30:17;10.70;;;6.10;;
17842;SDS011;69286;48.222;16.332;2024-02-26T06:32:44;10.03;;;6.33;;
17842;SDS011;69286;48.222;16.332;2024-02-26T06:35:11;12.30;;;6.57;;
17842;SDS011;69286;48.222;16.332;2024-02-26T06:37:38;10.57;;;6.00;;
17842;SDS011;69286;48.222;16.332;2024-02-26T06:40:07;9.20;;;5.87;;
17842;SDS011;69286;48.222;16.332;2024-02-26T06:42:35;12.53;;;6.53;;
17842;SDS011;69286;48.222;16.332;2024-02-26T06:45:02;9.83;;;5.90;;
17842;SDS011;69286;48.222;16.332;2024-02-26T06:47:30;12.07;;;5.77;;
17842;SDS011;69286;48.222;16.332;2024-02-26T06:49:57;13.60;;;5.80;;
17842;SDS011;69286;48.222;16.332;2024-02-26T06:52:24;8.10;;;4.90;;
17842;SDS011;69286;48.222;16.332;2024-02-26T06:54:51;11.67;;;6.27;;
17842;SDS011;69286;48.222;16.332;2024-02-26T06:57:20;11.70;;;5.20;;
17842;SDS011;69286;48.222;16.332;2024-02-26T06:59:47;7.47;;;4.80;;
17842;SDS011;69286;48.222;16.332;2024-02-26T07:02:14;11.23;;;4.90;;
17842;SDS011;69286;48.222;16.332;2024-02-26T07:04:41;11.43;;;5.00;;
17842;SDS011;69286;48.222;16.332;2024-02-26T07:07:08;7.07;;;4.60;;
17842;SDS011;69286;48.222;16.332;2024-02-26T07:09:35;8.37;;;5.10;;
17842;SDS011;69286;48.222;16.332;2024-02-26T07:12:02;6.87;;;4.60;;
17842;SDS011;69286;48.222;16.332;2024-02-26T07:14:31;7.67;;;4.80;;
17842;SDS011;69286;48.222;16.332;2024-02-26T07:16:58;9.90;;;4.93;;
17842;SDS011;69286;48.222;16.332;2024-02-26T07:19:25;10.47;;;5.23;;
17842;SDS011;69286;48.222;16.332;2024-02-26T07:21:52;10.63;;;5.43;;
17842;SDS011;69286;48.222;16.332;2024-02-26T07:24:19;8.63;;;5.13;;
17842;SDS011;69286;48.222;16.332;2024-02-26T07:26:46;9.87;;;4.77;;
17842;SDS011;69286;48.222;16.332;2024-02-26T07:29:13;10.87;;;5.57;;
17842;SDS011;69286;48.222;16.332;2024-02-26T07:31:41;9.50;;;4.53;;
17842;SDS011;69286;48.222;16.332;2024-02-26T07:34:08;7.43;;;4.83;;
17842;SDS011;69286;48.222;16.332;2024-02-26T07:36:35;9.83;;;4.97;;
17842;SDS011;69286;48.222;16.332;2024-02-26T07:39:02;9.20;;;5.70;;
17842;SDS011;69286;48.222;16.332;2024-02-26T07:41:29;7.77;;;4.80;;
17842;SDS011;69286;48.222;16.332;2024-02-26T07:43:56;10.13;;;5.50;;
17842;SDS011;69286;48.222;16.332;2024-02-26T07:46:23;7.90;;;4.73;;
17842;SDS011;69286;48.222;16.332;2024-02-26T07:48:51;11.70;;;5.00;;
17842;SDS011;69286;48.222;16.332;2024-02-26T07:51:18;9.20;;;5.17;;
17842;SDS011;69286;48.222;16.332;2024-02-26T07:53:45;8.40;;;5.07;;
17842;SDS011;69286;48.222;16.332;2024-02-26T07:56:12;7.70;;;5.10;;
17842;SDS011;69286;48.222;16.332;2024-02-26T07:58:39;15.83;;;4.93;;
17842;SDS011;69286;48.222;16.332;2024-02-26T08:01:06;8.10;;;5.03;;
17842;SDS011;69286;48.222;16.332;2024-02-26T08:03:33;10.97;;;5.47;;
17842;SDS011;69286;48.222;16.332;2024-02-26T08:06:01;9.97;;;5.10;;
17842;SDS011;69286;48.222;16.332;2024-02-26T08:08:28;10.37;;;5.23;;
17842;SDS011;69286;48.222;16.332;2024-02-26T08:10:55;9.17;;;5.10;;
17842;SDS011;69286;48.222;16.332;2024-02-26T08:13:22;12.50;;;6.07;;
17842;SDS011;69286;48.222;16.332;2024-02-26T08:15:49;10.10;;;4.70;;
17842;SDS011;69286;48.222;16.332;2024-02-26T08:18:16;9.87;;;5.27;;
17842;SDS011;69286;48.222;16.332;2024-02-26T08:20:43;11.10;;;5.00;;
17842;SDS011;69286;48.222;16.332;2024-02-26T08:23:11;11.10;;;5.17;;
17842;SDS011;69286;48.222;16.332;2024-02-26T08:25:38;9.70;;;5.73;;
17842;SDS011;69286;48.222;16.332;2024-02-26T08:28:05;10.43;;;4.60;;
17842;SDS011;69286;48.222;16.332;2024-02-26T08:30:32;9.17;;;5.47;;
17842;SDS011;69286;48.222;16.332;2024-02-26T08:33:01;9.63;;;5.43;;
17842;SDS011;69286;48.222;16.332;2024-02-26T08:35:28;10.57;;;5.70;;
17842;SDS011;69286;48.222;16.332;2024-02-26T08:37:55;6.97;;;4.70;;
17842;SDS011;69286;48.222;16.332;2024-02-26T08:40:23;9.47;;;5.07;;
17842;SDS011;69286;48.222;16.332;2024-02-26T08:42:50;10.83;;;4.57;;
17842;SDS011;69286;48.222;16.332;2024-02-26T08:45:17;10.03;;;5.07;;
17842;SDS011;69286;48.222;16.332;2024-02-26T08:47:44;6.80;;;4.57;;
17842;SDS011;69286;48.222;16.332;2024-02-26T08:50:11;7.57;;;4.37;;
17842;SDS011;69286;48.222;16.332;2024-02-26T08:52:38;7.30;;;4.37;;
17842;SDS011;69286;48.222;16.332;2024-02-26T08:55:05;11.10;;;4.87;;
17842;SDS011;69286;48.222;16.332;2024-02-26T08:57:35;11.60;;;4.83;;
17842;SDS011;69286;48.222;16.332;2024-02-26T09:00:04;9.23;;;5.17;;
17842;SDS011;69286;48.222;16.332;2024-02-26T09:02:32;9.33;;;4.03;;
17842;SDS011;69286;48.222;16.332;2024-02-26T09:04:58;7.80;;;4.23;;
17842;SDS011;69286;48.222;16.332;2024-02-26T09:07:25;8.97;;;4.80;;
17842;SDS011;69286;48.222;16.332;2024-02-26T09:09:52;10.57;;;4.97;;
17842;SDS011;69286;48.222;16.332;2024-02-26T09:12:20;7.50;;;4.50;;
17842;SDS011;69286;48.222;16.332;2024-02-26T09:14:48;11.07;;;4.27;;
17842;SDS011;69286;48.222;16.332;2024-02-26T09:17:15;10.57;;;4.50;;
17842;SDS011;69286;48.222;16.332;2024-02-26T09:19:42;6.20;;;4.17;;
17842;SDS011;69286;48.222;16.332;2024-02-26T09:22:09;7.63;;;3.80;;
17842;SDS011;69286;48.222;16.332;2024-02-26T09:24:36;9.53;;;4.20;;
17842;SDS011;69286;48.222;16.332;2024-02-26T09:27:03;7.57;;;3.83;;
17842;SDS011;69286;48.222;16.332;2024-02-26T09:29:31;6.30;;;4.00;;
17842;SDS011;69286;48.222;16.332;2024-02-26T09:31:59;6.53;;;4.17;;
17842;SDS011;69286;48.222;16.332;2024-02-26T09:34:27;6.23;;;3.70;;
17842;SDS011;69286;48.222;16.332;2024-02-26T09:36:54;4.77;;;3.27;;
17842;SDS011;69286;48.222;16.332;2024-02-26T09:39:21;10.73;;;3.83;;
17842;SDS011;69286;48.222;16.332;2024-02-26T09:41:48;8.17;;;3.47;;
17842;SDS011;69286;48.222;16.332;2024-02-26T09:44:16;6.53;;;3.53;;
17842;SDS011;69286;48.222;16.332;2024-02-26T09:46:46;3.77;;;2.90;;
17842;SDS011;69286;48.222;16.332;2024-02-26T09:49:15;4.23;;;2.70;;
17842;SDS011;69286;48.222;16.332;2024-02-26T09:51:43;3.87;;;2.80;;
17842;SDS011;69286;48.222;16.332;2024-02-26T09:54:10;7.03;;;2.70;;
17842;SDS011;69286;48.222;16.332;2024-02-26T09:56:39;6.23;;;2.37;;
17842;SDS011;69286;48.222;16.332;2024-02-26T09:59:06;4.67;;;2.50;;
17842;SDS011;69286;48.222;16.332;2024-02-26T10:01:39;6.97;;;2.80;;
17842;SDS011;69286;48.222;16.332;2024-02-26T10:04:10;4.87;;;2.30;;
17842;SDS011;69286;48.222;16.332;2024-02-26T10:06:39;4.37;;;2.30;;
17842;SDS011;69286;48.222;16.332;2024-02-26T10:09:09;6.93;;;2.30;;
17842;SDS011;69286;48.222;16.332;2024-02-26T10:11:37;4.23;;;2.93;;
17842;SDS011;69286;48.222;16.332;2024-02-26T10:14:08;5.13;;;2.47;;
17842;SDS011;69286;48.222;16.332;2024-02-26T10:16:35;3.83;;;2.60;;
17842;SDS011;69286;48.222;16.332;2024-02-26T10:19:03;5.27;;;2.30;;
17842;SDS011;69286;48.222;16.332;2024-02-26T10:21:29;5.00;;;2.47;;
17842;SDS011;69286;48.222;16.332;2024-02-26T10:23:58;4.70;;;2.20;;
17842;SDS011;69286;48.222;16.332;2024-02-26T10:26:25;12.47;;;2.90;;
17842;SDS011;69286;48.222;16.332;2024-02-26T10:28:52;6.33;;;3.30;;
17842;SDS011;69286;48.222;16.332;2024-02-26T10:31:19;5.60;;;2.93;;
17842;SDS011;69286;48.222;16.332;2024-02-26T10:33:46;4.40;;;2.30;;
17842;SDS011;69286;48.222;16.332;2024-02-26T10:36:13;5.60;;;2.50;;
17842;SDS011;69286;48.222;16.332;2024-02-26T10:38:40;4.53;;;2.37;;
17842;SDS011;69286;48.222;16.332;2024-02-26T10:41:12;3.67;;;2.30;;
17842;SDS011;69286;48.222;16.332;2024-02-26T10:43:41;3.63;;;2.20;;
17842;SDS011;69286;48.222;16.332;2024-02-26T10:46:09;5.33;;;2.70;;
17842;SDS011;69286;48.222;16.332;2024-02-26T10:48:36;4.87;;;2.87;;
17842;SDS011;69286;48.222;16.332;2024-02-26T10:51:03;7.47;;;2.80;;
17842;SDS011;69286;48.222;16.332;2024-02-26T10:53:30;7.57;;;2.60;;
17842;SDS011;69286;48.222;16.332;2024-02-26T10:56:00;4.57;;;2.63;;
17842;SDS011;69286;48.222;16.332;2024-02-26T10:58:31;5.00;;;2.50;;
17842;SDS011;69286;48.222;16.332;2024-02-26T11:01:02;4.97;;;2.53;;
17842;SDS011;69286;48.222;16.332;2024-02-26T11:03:30;5.60;;;2.80;;
17842;SDS011;69286;48.222;16.332;2024-02-26T11:06:00;6.37;;;2.50;;
17842;SDS011;69286;48.222;16.332;2024-02-26T11:08:28;2.87;;;2.40;;
17842;SDS011;69286;48.222;16.332;2024-02-26T11:10:57;4.67;;;2.50;;
17842;SDS011;69286;48.222;16.332;2024-02-26T11:13:26;4.27;;;2.77;;
17842;SDS011;69286;48.222;16.332;2024-02-26T11:15:57;9.17;;;2.43;;
17842;SDS011;69286;48.222;16.332;2024-02-26T11:18:26;4.23;;;2.70;;
17842;SDS011;69286;48.222;16.332;2024-02-26T11:20:54;4.30;;;2.20;;
17842;SDS011;69286;48.222;16.332;2024-02-26T11:23:22;4.33;;;2.87;;
17842;SDS011;69286;48.222;16.332;2024-02-26T11:25:49;3.97;;;2.27;;
17842;SDS011;69286;48.222;16.332;2024-02-26T11:28:18;5.50;;;2.23;;
17842;SDS011;69286;48.222;16.332;2024-02-26T11:30:47;3.30;;;2.10;;
17842;SDS011;69286;48.222;16.332;2024-02-26T11:33:17;4.57;;;2.30;;
17842;SDS011;69286;48.222;16.332;2024-02-26T11:35:45;4.07;;;2.20;;
17842;SDS011;69286;48.222;16.332;2024-02-26T11:38:16;3.23;;;2.03;;
17842;SDS011;69286;48.222;16.332;2024-02-26T11:40:45;2.30;;;2.10;;
17842;SDS011;69286;48.222;16.332;2024-02-26T11:43:13;2.57;;;1.83;;
17842;SDS011;69286;48.222;16.332;2024-02-26T11:45:50;5.37;;;2.13;;
17842;SDS011;69286;48.222;16.332;2024-02-26T11:48:23;4.80;;;2.30;;
17842;SDS011;69286;48.222;16.332;2024-02-26T11:50:51;3.70;;;1.90;;
17842;SDS011;69286;48.222;16.332;2024-02-26T11:53:20;4.23;;;2.00;;
17842;SDS011;69286;48.222;16.332;2024-02-26T11:58:46;2.63;;;1.70;;
17842;SDS011;69286;48.222;16.332;2024-02-26T12:04:21;3.40;;;1.93;;
17842;SDS011;69286;48.222;16.332;2024-02-26T12:06:51;3.10;;;1.90;;
17842;SDS011;69286;48.222;16.332;2024-02-26T12:09:30;5.10;;;1.90;;
17842;SDS011;69286;48.222;16.332;2024-02-26T12:11:57;8.73;;;2.33;;
17842;SDS011;69286;48.222;16.332;2024-02-26T12:14:25;3.27;;;2.20;;
17842;SDS011;69286;48.222;16.332;2024-02-26T12:16:53;2.50;;;2.13;;
17842;SDS011;69286;48.222;16.332;2024-02-26T12:19:22;5.87;;;2.30;;
17842;SDS011;69286;48.222;16.332;2024-02-26T12:21:50;7.17;;;2.10;;
17842;SDS011;69286;48.222;16.332;2024-02-26T12:24:20;3.70;;;1.93;;
17842;SDS011;69286;48.222;16.332;2024-02-26T12:26:47;4.87;;;2.10;;
17842;SDS011;69286;48.222;16.332;2024-02-26T12:29:14;3.93;;;1.70;;
17842;SDS011;69286;48.222;16.332;2024-02-26T12:31:41;5.03;;;1.83;;
17842;SDS011;69286;48.222;16.332;2024-02-26T12:34:09;5.20;;;2.47;;
17842;SDS011;69286;48.222;16.332;2024-02-26T12:36:37;4.60;;;1.97;;
17842;SDS011;69286;48.222;16.332;2024-02-26T12:39:05;5.30;;;2.10;;
17842;SDS011;69286;48.222;16.332;2024-02-26T12:41:34;7.93;;;2.73;;
17842;SDS011;69286;48.222;16.332;2024-02-26T12:44:01;2.73;;;2.00;;
17842;SDS011;69286;48.222;16.332;2024-02-26T12:46:28;4.80;;;2.00;;
17842;SDS011;69286;48.222;16.332;2024-02-26T12:48:55;2.97;;;1.87;;
17842;SDS011;69286;48.222;16.332;2024-02-26T12:51:24;5.20;;;1.83;;
17842;SDS011;69286;48.222;16.332;2024-02-26T12:53:53;5.13;;;1.97;;
17842;SDS011;69286;48.222;16.332;2024-02-26T12:56:21;3.30;;;2.50;;
17842;SDS011;69286;48.222;16.332;2024-02-26T12:58:49;5.43;;;2.20;;
17842;SDS011;69286;48.222;16.332;2024-02-26T13:01:18;4.20;;;1.90;;
17842;SDS011;69286;48.222;16.332;2024-02-26T13:03:47;11.77;;;2.07;;
17842;SDS011;69286;48.222;16.332;2024-02-26T13:06:15;5.87;;;2.47;;
17842;SDS011;69286;48.222;16.332;2024-02-26T13:08:43;2.37;;;1.93;;
17842;SDS011;69286;48.222;16.332;2024-02-26T13:11:12;4.90;;;2.40;;
17842;SDS011;69286;48.222;16.332;2024-02-26T13:13:39;2.80;;;2.00;;
17842;SDS011;69286;48.222;16.332;2024-02-26T13:16:07;8.07;;;2.20;;
17842;SDS011;69286;48.222;16.332;2024-02-26T13:18:35;5.30;;;3.20;;
17842;SDS011;69286;48.222;16.332;2024-02-26T13:21:08;4.03;;;2.30;;
17842;SDS011;69286;48.222;16.332;2024-02-26T13:23:39;5.53;;;2.87;;
17842;SDS011;69286;48.222;16.332;2024-02-26T13:26:15;4.03;;;2.50;;
17842;SDS011;69286;48.222;16.332;2024-02-26T13:28:42;2.73;;;2.03;;
17842;SDS011;69286;48.222;16.332;2024-02-26T13:31:09;3.03;;;1.90;;
17842;SDS011;69286;48.222;16.332;2024-02-26T13:33:36;6.50;;;2.30;;
17842;SDS011;69286;48.222;16.332;2024-02-26T13:36:03;2.80;;;2.10;;
17842;SDS011;69286;48.222;16.332;2024-02-26T13:38:31;6.30;;;2.40;;
17842;SDS011;69286;48.222;16.332;2024-02-26T13:40:58;3.67;;;1.80;;
17842;SDS011;69286;48.222;16.332;2024-02-26T13:43:26;5.17;;;2.40;;
17842;SDS011;69286;48.222;16.332;2024-02-26T13:45:53;5.97;;;2.40;;
17842;SDS011;69286;48.222;16.332;2024-02-26T13:48:21;4.03;;;2.43;;
17842;SDS011;69286;48.222;16.332;2024-02-26T13:50:48;3.23;;;1.77;;
17842;SDS011;69286;48.222;16.332;2024-02-26T13:53:15;2.00;;;1.70;;
17842;SDS011;69286;48.222;16.332;2024-02-26T13:55:42;4.67;;;2.03;;
17842;SDS011;69286;48.222;16.332;2024-02-26T13:58:09;7.83;;;2.10;;
17842;SDS011;69286;48.222;16.332;2024-02-26T14:00:40;5.20;;;2.10;;
17842;SDS011;69286;48.222;16.332;2024-02-26T14:03:07;4.87;;;2.37;;
17842;SDS011;69286;48.222;16.332;2024-02-26T14:05:34;2.97;;;1.80;;
17842;SDS011;69286;48.222;16.332;2024-02-26T14:08:01;2.80;;;1.83;;
17842;SDS011;69286;48.222;16.332;2024-02-26T14:10:28;2.80;;;1.80;;
17842;SDS011;69286;48.222;16.332;2024-02-26T14:12:56;5.53;;;1.83;;
17842;SDS011;69286;48.222;16.332;2024-02-26T14:15:24;3.37;;;2.30;;
17842;SDS011;69286;48.222;16.332;2024-02-26T14:17:52;3.27;;;2.07;;
17842;SDS011;69286;48.222;16.332;2024-02-26T14:20:21;2.77;;;2.10;;
17842;SDS011;69286;48.222;16.332;2024-02-26T14:22:48;1.93;;;1.60;;
17842;SDS011;69286;48.222;16.332;2024-02-26T14:25:16;4.23;;;1.77;;
17842;SDS011;69286;48.222;16.332;2024-02-26T14:27:43;2.17;;;1.87;;
17842;SDS011;69286;48.222;16.332;2024-02-26T14:30:11;4.73;;;2.23;;
17842;SDS011;69286;48.222;16.332;2024-02-26T14:32:38;4.20;;;2.43;;
17842;SDS011;69286;48.222;16.332;2024-02-26T14:35:07;3.17;;;2.13;;
17842;SDS011;69286;48.222;16.332;2024-02-26T14:37:35;2.97;;;2.00;;
17842;SDS011;69286;48.222;16.332;2024-02-26T14:40:02;6.00;;;2.00;;